Time;durP1;ratioP1;P1;durP2;ratioP2;P2;SDS_P1;SDS_P2;PMS_P1;PMS_P2;Temp;Humidity;BMP_temperature;BMP_pressure;BME280_temperature;BME280_humidity;BME280_pressure;Samples;Min_cycle;Max_cycle;Signal;HPM_P1;HPM_P2
2022/10/23 00:00:30;;;;;;;5.20;3.28;;;;;;;13.22;89.60;101444.38;5032658;27;96573;-30
2022/10/23 00:02:55;;;;;;;8.48;3.55;;;;;;;13.22;89.64;101438.06;5032773;28;104945;-30
2022/10/23 00:05:22;;;;;;;11.60;3.67;;;;;;;13.22;89.49;101444.38;5032517;27;98039;-30
2022/10/23 00:07:52;;;;;;;8.05;3.90;;;;;;;13.20;89.35;101440.84;5030724;28;100960;-30
2022/10/23 00:10:19;;;;;;;6.25;3.22;;;;;;;13.20;89.53;101450.88;5030612;28;96717;-30
2022/10/23 00:12:44;;;;;;;7.70;3.38;;;;;;;13.20;89.55;101450.88;5030781;28;97065;-30
2022/10/23 00:15:11;;;;;;;8.15;3.78;;;;;;;13.20;89.47;101440.84;5031799;27;99290;-31
2022/10/23 00:17:37;;;;;;;8.88;4.22;;;;;;;13.20;89.47;101440.00;5030734;28;101019;-31
2022/10/23 00:20:04;;;;;;;7.25;3.13;;;;;;;13.18;89.62;101440.97;5032364;27;96565;-31
2022/10/23 00:22:29;;;;;;;9.73;3.38;;;;;;;13.17;89.84;101443.78;5031000;28;96860;-31
2022/10/23 00:24:54;;;;;;;5.47;3.08;;;;;;;13.15;89.89;101430.25;5031873;28;107407;-30
2022/10/23 00:27:20;;;;;;;9.48;3.80;;;;;;;13.18;90.21;101431.94;5031730;28;113336;-30
2022/10/23 00:29:45;;;;;;;5.97;3.70;;;;;;;13.17;89.69;101431.03;5032124;28;96538;-31
2022/10/23 00:32:10;;;;;;;8.60;3.42;;;;;;;13.18;89.79;101434.66;5031447;28;113131;-30
2022/10/23 00:34:35;;;;;;;13.07;3.78;;;;;;;13.16;90.17;101429.31;5030868;28;117533;-31
2022/10/23 00:37:01;;;;;;;5.45;3.22;;;;;;;13.15;90.04;101438.44;5031394;28;114065;-32
2022/10/23 00:39:26;;;;;;;7.60;3.38;;;;;;;13.17;89.94;101436.50;5032286;28;96468;-30
2022/10/23 00:41:51;;;;;;;7.07;3.85;;;;;;;13.18;90.05;101440.09;5031348;28;113745;-31
2022/10/23 00:44:17;;;;;;;7.32;3.95;;;;;;;13.18;89.98;101440.09;5031677;27;99619;-32
2022/10/23 00:46:43;;;;;;;8.32;3.08;;;;;;;13.19;90.14;101439.13;5031961;28;97866;-30
2022/10/23 00:49:09;;;;;;;6.32;4.32;;;;;;;13.17;90.06;101430.19;5029793;28;96850;-30
2022/10/23 00:51:39;;;;;;;8.98;4.80;;;;;;;13.17;90.19;101436.50;5032305;27;96797;-30
2022/10/23 00:54:07;;;;;;;11.48;4.80;;;;;;;13.16;89.83;101431.16;5030372;28;100957;-30
2022/10/23 00:56:34;;;;;;;9.68;5.20;;;;;;;13.15;90.06;101426.69;5029979;28;100884;-30
2022/10/23 00:59:00;;;;;;;9.77;5.50;;;;;;;13.15;90.23;101426.69;5031329;27;97268;-30
2022/10/23 01:01:25;;;;;;;9.85;5.25;;;;;;;13.14;90.10;101431.25;5035447;28;96790;-31
2022/10/23 01:03:51;;;;;;;13.52;5.57;;;;;;;13.10;90.15;101426.97;5035137;28;97888;-30
2022/10/23 01:06:34;;;;;;;9.07;4.28;;;;;;;13.13;90.29;101428.63;5035120;28;97948;-30
2022/10/23 01:09:05;;;;;;;7.78;3.85;;;;;;;13.11;90.33;101436.91;5033805;28;96749;-31
2022/10/23 01:11:56;;;;;;;5.97;3.72;;;;;;;13.08;90.39;101433.47;5035262;28;96845;-31
2022/10/23 01:14:45;;;;;;;12.50;4.20;;;;;;;13.07;90.50;101426.31;5034714;28;99025;-30
2022/10/23 01:17:28;;;;;;;9.98;3.85;;;;;;;13.01;90.20;101419.38;5035194;28;99463;-31
2022/10/23 01:20:05;;;;;;;11.18;3.78;;;;;;;13.03;90.25;101420.16;5033747;28;96742;-30
2022/10/23 01:22:59;;;;;;;9.93;4.13;;;;;;;12.98;90.53;101416.88;5033750;28;96835;-30
2022/10/23 01:25:42;;;;;;;10.65;3.58;;;;;;;12.98;90.63;101414.16;5034305;28;99388;-30
2022/10/23 01:28:20;;;;;;;6.78;3.80;;;;;;;12.96;90.48;101413.34;5033386;28;101049;-30
2022/10/23 01:30:47;;;;;;;6.18;4.00;;;;;;;12.96;90.48;101411.50;5033614;28;96675;-30
2022/10/23 01:33:21;;;;;;;11.02;4.82;;;;;;;12.97;90.88;101412.41;5034941;28;96777;-32
2022/10/23 01:35:51;;;;;;;8.32;4.80;;;;;;;12.94;90.44;101399.88;5033257;28;101362;-30
2022/10/23 01:38:42;;;;;;;9.70;4.70;;;;;;;12.94;90.82;101399.88;5033169;28;100988;-32
2022/10/23 01:41:15;;;;;;;11.52;4.28;;;;;;;12.95;90.66;101400.75;5033415;28;96714;-31
2022/10/23 01:43:48;;;;;;;5.88;3.38;;;;;;;12.95;90.60;101395.31;5033527;28;96876;-31
2022/10/23 01:46:16;;;;;;;8.82;4.18;;;;;;;12.93;90.49;101389.94;5034782;28;97968;-31
2022/10/23 01:48:47;;;;;;;10.82;3.72;;;;;;;12.92;90.77;101379.19;5031814;27;101083;-30
2022/10/23 01:51:13;;;;;;;8.48;3.45;;;;;;;12.94;90.93;101379.94;5032779;28;96500;-30
2022/10/23 01:53:42;;;;;;;7.22;2.95;;;;;;;12.93;91.02;101373.63;5033035;28;96913;-30
2022/10/23 01:56:13;;;;;;;7.22;3.17;;;;;;;12.94;90.92;101374.50;5032915;27;100901;-30
2022/10/23 01:58:42;;;;;;;7.72;3.42;;;;;;;12.93;90.63;101370.06;5032902;28;100677;-30
2022/10/23 02:01:10;;;;;;;8.55;3.40;;;;;;;12.91;91.00;101366.56;5032669;28;97875;-30
2022/10/23 02:03:38;;;;;;;5.35;3.13;;;;;;;12.90;91.22;101364.81;5032985;28;96909;-32
2022/10/23 02:06:04;;;;;;;8.60;4.05;;;;;;;12.92;91.10;101368.31;5032641;28;101420;-30
2022/10/23 02:08:30;;;;;;;7.60;3.17;;;;;;;12.92;91.12;101366.47;5034369;27;99394;-30
2022/10/23 02:11:14;;;;;;;7.53;3.38;;;;;;;12.91;90.78;101363.84;5033748;27;97081;-31
2022/10/23 02:13:58;;;;;;;5.72;3.38;;;;;;;12.92;90.84;101371.03;5066564;27;96761;-30
2022/10/23 02:16:35;;;;;;;7.28;3.13;;;;;;;12.91;90.83;101372.00;5033693;28;97426;-32
2022/10/23 02:19:22;;;;;;;8.27;3.05;;;;;;;12.90;90.84;101371.13;5033930;28;99127;-30
2022/10/23 02:21:59;;;;;;;7.35;3.15;;;;;;;12.88;90.72;101372.19;5034193;28;96492;-31
2022/10/23 02:24:33;;;;;;;9.35;3.40;;;;;;;12.84;90.62;101362.47;5032628;28;96743;-30
2022/10/23 02:27:02;;;;;;;7.97;3.65;;;;;;;12.84;90.79;101363.34;5032564;28;100872;-31
2022/10/23 02:29:42;;;;;;;6.93;3.22;;;;;;;12.84;91.03;101362.47;5032555;28;101226;-32
2022/10/23 02:32:09;;;;;;;5.60;3.20;;;;;;;12.83;91.01;101366.19;5032524;28;96732;-31
2022/10/23 02:34:34;;;;;;;5.80;2.88;;;;;;;12.85;91.04;101364.25;5032727;28;96949;-31
2022/10/23 02:37:01;;;;;;;6.20;3.05;;;;;;;12.84;90.88;101354.31;5032334;27;101510;-32
2022/10/23 02:39:27;;;;;;;9.30;3.78;;;;;;;12.84;90.95;101354.31;5032301;28;100199;-31
2022/10/23 02:42:03;;;;;;;5.40;2.78;;;;;;;12.84;91.04;101347.03;5031798;28;97302;-31
2022/10/23 02:44:37;;;;;;;6.20;3.28;;;;;;;12.84;91.08;101340.72;5032418;28;96716;-30
2022/10/23 02:47:15;;;;;;;5.20;3.00;;;;;;;12.81;91.00;101335.50;5033853;28;97421;-32
2022/10/23 02:49:50;;;;;;;6.13;3.22;;;;;;;12.80;91.54;101329.19;5032746;28;103457;-31
2022/10/23 02:52:22;;;;;;;11.00;2.85;;;;;;;12.81;91.59;101325.47;5032226;28;96615;-30
2022/10/23 02:55:05;;;;;;;5.78;2.78;;;;;;;12.81;91.19;101325.47;5032178;28;96783;-32
2022/10/23 02:57:30;;;;;;;8.45;4.43;;;;;;;12.81;91.19;101300.16;5033486;28;99448;-30
2022/10/23 03:00:10;;;;;;;9.43;3.45;;;;;;;12.79;91.32;101294.78;5033799;28;97348;-30
2022/10/23 03:02:44;;;;;;;8.20;3.13;;;;;;;12.80;91.30;101290.22;5032117;28;96662;-32
2022/10/23 03:05:14;;;;;;;6.00;3.30;;;;;;;12.78;91.60;101295.78;5032215;28;96684;-31
2022/10/23 03:07:39;;;;;;;6.15;3.35;;;;;;;12.76;91.52;101295.00;5031126;28;101099;-31
2022/10/23 03:10:06;;;;;;;8.15;3.08;;;;;;;12.75;91.26;101288.69;5033229;28;97684;-30
2022/10/23 03:12:32;;;;;;;10.05;3.15;;;;;;;12.76;91.55;101295.00;5033340;28;96659;-30
2022/10/23 03:14:57;;;;;;;7.10;2.85;;;;;;;12.76;91.58;101292.28;5033097;28;96801;-30
2022/10/23 03:17:24;;;;;;;8.85;3.60;;;;;;;12.75;91.46;101293.22;5033204;28;97972;-30
2022/10/23 03:19:49;;;;;;;13.25;3.28;;;;;;;12.75;91.46;101282.38;5032958;28;99110;-30
2022/10/23 03:22:14;;;;;;;6.47;3.20;;;;;;;12.76;91.67;101284.13;5031763;28;96608;-32
2022/10/23 03:24:40;;;;;;;6.80;3.28;;;;;;;12.74;91.57;101276.06;5032954;27;109785;-31
2022/10/23 03:27:05;;;;;;;5.95;3.22;;;;;;;12.70;91.68;101279.97;5032939;27;97482;-30
2022/10/23 03:29:30;;;;;;;5.78;2.97;;;;;;;12.68;91.88;101272.84;5032903;27;99548;-31
2022/10/23 03:31:56;;;;;;;6.65;3.15;;;;;;;12.67;91.86;101266.56;5032573;28;96494;-32
2022/10/23 03:34:21;;;;;;;6.32;2.92;;;;;;;12.66;91.85;101266.66;5033129;28;96512;-33
2022/10/23 03:36:47;;;;;;;9.18;3.30;;;;;;;12.66;92.10;101262.09;5032561;28;97896;-31
2022/10/23 03:39:12;;;;;;;4.00;2.85;;;;;;;12.67;92.05;101261.13;5032607;27;97786;-32
2022/10/23 03:41:37;;;;;;;6.18;2.88;;;;;;;12.66;92.31;101250.34;5032978;28;96601;-30
2022/10/23 03:44:03;;;;;;;4.93;2.95;;;;;;;12.62;91.99;101244.22;5032730;28;96827;-30
2022/10/23 03:46:28;;;;;;;6.40;3.20;;;;;;;12.63;92.15;101239.66;5032646;28;97761;-31
2022/10/23 03:48:57;;;;;;;6.13;3.17;;;;;;;12.66;92.09;101243.06;5032230;27;99269;-31
2022/10/23 03:51:22;;;;;;;6.82;3.35;;;;;;;12.66;92.19;101248.50;5032590;28;96629;-32
2022/10/23 03:53:48;;;;;;;7.32;3.20;;;;;;;12.62;92.15;101237.94;5032699;28;96844;-31
2022/10/23 03:56:13;;;;;;;4.00;2.45;;;;;;;12.61;92.43;101239.78;5032099;27;97807;-31
2022/10/23 03:58:39;;;;;;;5.75;2.90;;;;;;;12.61;92.79;101244.31;5032170;27;111760;-31
2022/10/23 04:01:04;;;;;;;8.93;2.95;;;;;;;12.61;92.75;101241.59;5032605;28;96488;-30
2022/10/23 04:03:29;;;;;;;9.23;2.95;;;;;;;12.60;92.26;101245.31;5032799;27;96748;-30
2022/10/23 04:05:55;;;;;;;4.97;2.33;;;;;;;12.62;92.61;101236.06;5032450;28;97515;-30
2022/10/23 04:08:20;;;;;;;4.75;2.67;;;;;;;12.66;92.34;101239.50;5031962;28;110385;-32
2022/10/23 04:10:46;;;;;;;4.82;2.63;;;;;;;12.66;92.21;101226.75;5032256;28;96968;-30
2022/10/23 04:13:11;;;;;;;7.78;2.47;;;;;;;12.67;93.11;101220.34;5032672;28;96859;-31
2022/10/23 04:15:36;;;;;;;7.40;3.15;;;;;;;12.66;92.74;101213.19;5032309;28;97812;-30
2022/10/23 04:18:02;;;;;;;4.43;2.75;;;;;;;12.67;92.49;101200.44;5031764;28;106406;-30
2022/10/23 04:20:28;;;;;;;4.38;2.65;;;;;;;12.65;92.59;101199.66;5064644;27;96727;-32
2022/10/23 04:22:53;;;;;;;4.97;2.35;;;;;;;12.65;92.54;101196.94;5032284;28;96788;-30
2022/10/23 04:25:18;;;;;;;7.93;2.80;;;;;;;12.67;92.44;101198.59;5031126;28;121291;-31
2022/10/23 04:27:44;;;;;;;6.80;2.92;;;;;;;12.67;92.91;101195.88;5032162;28;97920;-31
2022/10/23 04:30:10;;;;;;;6.03;2.30;;;;;;;12.69;92.14;101201.22;5032045;28;96664;-30
2022/10/23 04:32:35;;;;;;;6.82;2.70;;;;;;;12.65;92.38;101195.09;5032017;28;96861;-30
2022/10/23 04:35:00;;;;;;;5.38;2.28;;;;;;;12.66;92.44;101188.72;5035032;27;98862;-30
2022/10/23 04:37:27;;;;;;;4.88;2.20;;;;;;;12.63;93.13;101179.88;5035499;28;99308;-30
2022/10/23 04:39:52;;;;;;;6.18;2.80;;;;;;;12.61;93.09;101188.16;5034193;28;96645;-30
2022/10/23 04:42:18;;;;;;;5.20;2.38;;;;;;;12.63;92.94;101190.75;5035578;28;96793;-31
2022/10/23 04:44:43;;;;;;;5.05;2.75;;;;;;;12.65;92.62;101188.81;5035113;28;97964;-31
2022/10/23 04:47:08;;;;;;;4.85;2.53;;;;;;;12.62;92.61;101189.88;5035021;28;105629;-30
2022/10/23 04:49:33;;;;;;;4.07;2.20;;;;;;;12.62;92.86;101195.31;5035167;28;96719;-31
2022/10/23 04:51:59;;;;;;;3.97;2.33;;;;;;;12.64;92.98;101203.38;5034667;28;116649;-31
2022/10/23 04:54:24;;;;;;;4.00;2.22;;;;;;;12.62;92.90;101194.44;5035497;28;97907;-30
2022/10/23 04:56:49;;;;;;;4.85;2.08;;;;;;;12.64;92.59;101195.22;5035538;28;97745;-30
2022/10/23 04:59:15;;;;;;;5.82;2.40;;;;;;;12.63;92.93;101190.75;5035036;28;105695;-30
2022/10/23 05:01:40;;;;;;;4.68;2.35;;;;;;;12.62;93.16;101183.56;5035158;28;114641;-30
2022/10/23 05:04:05;;;;;;;4.88;2.28;;;;;;;12.65;92.63;101184.22;5034825;27;109131;-31
2022/10/23 05:06:31;;;;;;;9.68;2.25;;;;;;;12.62;92.50;101176.28;5034701;28;99554;-31
2022/10/23 05:08:56;;;;;;;4.88;2.25;;;;;;;12.63;92.60;101172.63;5034269;28;106135;-31
2022/10/23 05:11:21;;;;;;;5.78;2.60;;;;;;;12.62;92.75;101168.13;5035418;28;96817;-30
2022/10/23 05:13:47;;;;;;;4.40;2.30;;;;;;;12.63;92.54;101174.44;5035215;27;98053;-30
2022/10/23 05:16:38;;;;;;;4.22;2.30;;;;;;;12.64;92.73;101187.06;5035050;27;97329;-31
2022/10/23 05:19:06;;;;;;;2.73;1.97;;;;;;;12.64;92.57;101178.91;5033662;28;96886;-31
2022/10/23 05:21:34;;;;;;;5.95;2.70;;;;;;;12.63;92.77;101175.34;5033690;28;96723;-30
2022/10/23 05:24:00;;;;;;;6.07;2.75;;;;;;;12.63;92.88;101172.63;5033573;27;100917;-31
2022/10/23 05:26:27;;;;;;;5.07;2.58;;;;;;;12.62;92.94;101170.84;5035005;28;99299;-31
2022/10/23 05:28:52;;;;;;;4.13;1.77;;;;;;;12.61;93.16;101169.13;5033487;27;96669;-31
2022/10/23 05:31:20;;;;;;;4.15;2.30;;;;;;;12.59;93.33;101168.34;5034806;28;98163;-31
2022/10/23 05:33:45;;;;;;;5.50;2.05;;;;;;;12.61;92.83;101170.94;5032877;28;100804;-30
2022/10/23 05:36:12;;;;;;;5.57;2.08;;;;;;;12.61;92.66;101176.38;5034708;28;97950;-30
2022/10/23 05:38:38;;;;;;;5.55;2.00;;;;;;;12.64;92.86;101184.34;5033380;28;96558;-30
2022/10/23 05:41:03;;;;;;;4.45;2.42;;;;;;;12.64;92.78;101177.06;5034641;28;96819;-30
2022/10/23 05:43:30;;;;;;;7.13;2.63;;;;;;;12.64;92.92;101179.78;5034407;27;99648;-31
2022/10/23 05:45:56;;;;;;;5.53;1.83;;;;;;;12.63;92.81;101174.44;5033460;28;97165;-31
2022/10/23 05:48:21;;;;;;;5.03;2.22;;;;;;;12.64;92.83;101178.91;5032417;28;96612;-31
2022/10/23 05:50:47;;;;;;;6.32;2.20;;;;;;;12.66;92.98;101166.97;5034974;28;96789;-31
2022/10/23 05:53:12;;;;;;;3.40;1.90;;;;;;;12.62;92.82;101151.81;5034431;28;97515;-30
2022/10/23 05:55:38;;;;;;;2.60;1.73;;;;;;;12.62;93.05;101149.13;5034417;28;97822;-32
2022/10/23 05:58:03;;;;;;;2.63;1.70;;;;;;;12.62;92.99;101157.25;5033973;27;96552;-31
2022/10/23 06:00:29;;;;;;;5.10;2.28;;;;;;;12.60;93.19;101152.91;5034854;28;96759;-31
2022/10/23 06:02:54;;;;;;;4.70;2.40;;;;;;;12.61;93.16;101152.81;5034162;28;97937;-30
2022/10/23 06:05:20;;;;;;;5.13;2.15;;;;;;;12.60;93.19;101148.34;5034086;27;98036;-30
2022/10/23 06:07:45;;;;;;;6.30;2.55;;;;;;;12.62;93.31;101146.41;5034225;27;96778;-30
2022/10/23 06:10:11;;;;;;;8.05;2.55;;;;;;;12.63;93.26;101148.16;5034242;28;96706;-30
2022/10/23 06:12:36;;;;;;;3.88;2.17;;;;;;;12.63;93.67;101144.53;5032659;28;100808;-30
2022/10/23 06:15:03;;;;;;;4.32;2.42;;;;;;;12.60;93.49;101133.88;5033746;28;112715;-32
2022/10/23 06:17:28;;;;;;;3.35;1.88;;;;;;;12.62;94.21;101132.81;5032730;28;97805;-31
2022/10/23 06:19:59;;;;;;;5.13;2.13;;;;;;;12.61;93.97;101133.78;5034212;28;96489;-32
2022/10/23 06:22:26;;;;;;;5.95;2.72;;;;;;;12.62;93.23;101127.38;5033532;28;98703;-34
2022/10/23 06:24:51;;;;;;;3.83;1.88;;;;;;;12.61;94.15;101128.34;5032378;28;100762;-30
2022/10/23 06:27:17;;;;;;;4.47;2.28;;;;;;;12.62;93.88;101126.50;5033966;28;96455;-30
2022/10/23 06:29:42;;;;;;;7.80;2.22;;;;;;;12.61;94.34;101120.19;5033844;28;97290;-30
2022/10/23 06:32:07;;;;;;;4.53;2.28;;;;;;;12.60;94.24;101109.41;5033983;28;97960;-30
2022/10/23 06:34:33;;;;;;;4.35;1.95;;;;;;;12.60;93.96;101104.84;5033816;28;102007;-30
2022/10/23 06:36:58;;;;;;;3.75;1.95;;;;;;;12.61;94.18;101089.41;5033783;28;96656;-30
2022/10/23 06:39:24;;;;;;;5.85;2.55;;;;;;;12.61;94.32;101083.97;5034291;28;96775;-31
2022/10/23 06:41:49;;;;;;;9.60;2.50;;;;;;;12.61;93.97;101087.59;5033534;28;99179;-31
2022/10/23 06:44:14;;;;;;;5.38;2.25;;;;;;;12.62;93.83;101083.03;5032877;27;121797;-30
2022/10/23 06:46:40;;;;;;;8.25;2.85;;;;;;;12.65;93.68;101096.41;5033248;28;96627;-30
2022/10/23 06:49:05;;;;;;;7.00;3.00;;;;;;;12.63;94.15;101101.97;5033081;27;96742;-30
2022/10/23 06:51:30;;;;;;;5.93;2.33;;;;;;;12.66;93.44;101109.03;5033046;28;117271;-31
2022/10/23 06:53:56;;;;;;;5.00;2.65;;;;;;;12.69;93.58;101097.94;5033670;28;97777;-30
2022/10/23 06:56:24;;;;;;;6.35;2.40;;;;;;;12.67;94.04;101095.31;5033167;27;98817;-31
2022/10/23 06:58:49;;;;;;;5.38;2.63;;;;;;;12.67;94.28;101094.44;5032203;28;96779;-31
2022/10/23 07:01:15;;;;;;;5.45;2.40;;;;;;;12.65;94.71;101086.38;5032907;28;119510;-31
2022/10/23 07:03:40;;;;;;;5.15;2.75;;;;;;;12.67;94.43;101073.56;5033717;28;99033;-31
2022/10/23 07:06:07;;;;;;;5.20;2.55;;;;;;;12.69;94.17;101066.19;5033528;28;96574;-29
2022/10/23 07:08:33;;;;;;;5.57;2.63;;;;;;;12.71;94.71;101061.53;5031966;28;96895;-30
2022/10/23 07:11:05;;;;;;;4.28;2.55;;;;;;;12.69;94.68;101066.19;5032778;28;97950;-31
2022/10/23 07:13:32;;;;;;;3.63;2.20;;;;;;;12.75;93.85;101078.50;5033689;28;97068;-30
2022/10/23 07:15:57;;;;;;;5.40;2.72;;;;;;;12.77;94.41;101083.84;5031772;28;96875;-30
2022/10/23 07:18:23;;;;;;;5.10;2.28;;;;;;;12.77;94.44;101086.56;5032729;28;113207;-30
2022/10/23 07:20:50;;;;;;;5.45;2.60;;;;;;;12.75;94.39;101079.38;5032502;28;118821;-30
2022/10/23 07:23:15;;;;;;;7.78;2.58;;;;;;;12.80;94.12;101087.25;5032748;28;99968;-31
2022/10/23 07:25:41;;;;;;;5.78;2.35;;;;;;;12.80;94.57;101083.63;5033224;28;96532;-31
2022/10/23 07:28:06;;;;;;;6.97;2.90;;;;;;;12.81;94.54;101072.66;5033400;28;96856;-30
2022/10/23 07:30:32;;;;;;;10.50;3.25;;;;;;;12.86;94.40;101075.06;5033107;28;97279;-30
2022/10/23 07:32:57;;;;;;;9.40;2.88;;;;;;;12.87;94.15;101072.25;5033043;28;97274;-30
2022/10/23 07:35:22;;;;;;;6.65;2.50;;;;;;;12.89;94.22;101073.00;5032363;28;97570;-31
2022/10/23 07:37:48;;;;;;;4.82;2.38;;;;;;;12.91;94.32;101072.91;5033139;28;96700;-34
2022/10/23 07:40:13;;;;;;;3.90;2.20;;;;;;;12.91;94.15;101064.75;5032926;28;97854;-31
2022/10/23 07:42:39;;;;;;;7.18;3.30;;;;;;;12.95;94.15;101077.16;5032977;27;97234;-31
2022/10/23 07:45:07;;;;;;;6.30;2.20;;;;;;;12.96;94.07;101073.47;5031386;28;96563;-30
2022/10/23 07:47:33;;;;;;;8.48;2.85;;;;;;;12.98;94.07;101066.06;5031348;28;97341;-32
2022/10/23 07:49:58;;;;;;;4.55;2.22;;;;;;;12.99;94.88;101062.41;5031808;28;99310;-30
2022/10/23 07:52:24;;;;;;;3.95;2.20;;;;;;;13.00;94.73;101058.69;5032925;28;99177;-31
2022/10/23 07:54:51;;;;;;;4.90;2.50;;;;;;;13.02;94.66;101047.72;5033170;28;96464;-30
2022/10/23 07:57:16;;;;;;;10.02;2.83;;;;;;;13.04;94.70;101051.16;5031144;28;96848;-30
2022/10/23 07:59:41;;;;;;;7.03;3.40;;;;;;;13.04;94.66;101051.16;5031807;28;99118;-31
2022/10/23 08:02:12;;;;;;;6.50;2.67;;;;;;;13.03;94.47;101044.88;5032272;28;113331;-31
2022/10/23 08:04:37;;;;;;;5.93;3.08;;;;;;;13.07;94.45;101051.84;5031096;28;96591;-30
2022/10/23 08:07:02;;;;;;;6.80;3.13;;;;;;;13.12;94.17;101057.84;5032051;28;110770;-30
2022/10/23 08:09:27;;;;;;;10.13;4.05;;;;;;;13.14;93.93;101052.31;5031156;27;109763;-30
2022/10/23 08:11:53;;;;;;;8.52;3.13;;;;;;;13.14;94.55;101047.72;5032339;28;100979;-30
2022/10/23 08:14:18;;;;;;;7.82;3.35;;;;;;;13.16;94.23;101042.19;5031701;28;113869;-34
2022/10/23 08:16:43;;;;;;;6.40;2.35;;;;;;;13.14;95.01;101034.13;5032893;28;96771;-32
2022/10/23 08:19:09;;;;;;;5.47;2.45;;;;;;;13.16;94.77;101034.91;5031838;28;113668;-31
2022/10/23 08:21:34;;;;;;;8.13;2.97;;;;;;;13.21;94.43;101034.59;5032462;28;97311;-29
2022/10/23 08:24:00;;;;;;;7.53;2.97;;;;;;;13.21;94.77;101018.25;5031947;28;96486;-30
2022/10/23 08:26:28;;;;;;;10.10;3.28;;;;;;;13.23;94.49;101018.13;5032123;28;96880;-31
2022/10/23 08:28:54;;;;;;;7.25;2.78;;;;;;;13.25;94.73;101022.50;5030600;28;101170;-32
2022/10/23 08:31:20;;;;;;;5.03;2.45;;;;;;;13.26;94.85;101012.50;5030644;28;100591;-30
2022/10/23 08:33:46;;;;;;;5.47;2.38;;;;;;;13.29;94.44;101010.44;5030715;28;96628;-30
2022/10/23 08:36:22;;;;;;;5.88;2.50;;;;;;;13.35;94.59;101018.19;5032052;28;96893;-30
2022/10/23 08:38:49;;;;;;;6.30;3.38;;;;;;;13.35;94.62;101010.03;5030554;28;102175;-31
2022/10/23 08:41:29;;;;;;;8.75;2.75;;;;;;;13.39;94.52;101010.66;5030876;28;100549;-32
2022/10/23 08:44:06;;;;;;;7.18;3.05;;;;;;;13.43;93.96;101016.78;5014410;28;96997;-31
2022/10/23 08:46:39;;;;;;;4.20;2.55;;;;;;;13.47;93.77;101002.84;5030962;28;96783;-30
2022/10/23 08:49:34;;;;;;;5.63;2.50;;;;;;;13.49;94.25;101005.44;5029477;28;100831;-30
2022/10/23 08:52:04;;;;;;;7.07;2.17;;;;;;;13.50;94.02;100996.31;5032224;28;97289;-31
2022/10/23 08:55:11;;;;;;;5.70;2.10;;;;;;;13.51;94.21;100988.03;5030414;28;97104;-32
2022/10/23 08:57:44;;;;;;;8.70;2.92;;;;;;;13.54;93.71;100992.41;5031875;28;97338;-31
2022/10/23 09:00:15;;;;;;;8.25;2.70;;;;;;;13.56;93.90;100987.69;5030356;28;101038;-30
2022/10/23 09:02:42;;;;;;;8.18;2.97;;;;;;;13.59;93.88;100990.22;5030175;28;101070;-31
2022/10/23 09:05:20;;;;;;;5.90;3.00;;;;;;;13.60;94.03;100989.22;5031826;28;96776;-31
2022/10/23 09:08:12;;;;;;;7.88;2.35;;;;;;;13.65;94.08;100983.44;5030698;28;96738;-30
2022/10/23 09:10:59;;;;;;;5.40;2.35;;;;;;;13.65;93.88;100988.88;5030343;28;101647;-30
2022/10/23 09:13:33;;;;;;;6.28;2.15;;;;;;;13.67;93.94;100992.38;5030240;28;100797;-31
2022/10/23 09:16:18;;;;;;;11.20;3.28;;;;;;;13.69;93.59;100987.69;5031183;28;96861;-30
2022/10/23 09:18:47;;;;;;;7.68;2.28;;;;;;;13.68;94.22;100978.66;5031170;28;96860;-31
2022/10/23 09:21:12;;;;;;;6.15;2.67;;;;;;;13.69;93.89;100974.09;5033183;28;101187;-30
2022/10/23 09:23:37;;;;;;;7.15;3.20;;;;;;;13.72;94.22;100962.97;5034717;27;108678;-30
2022/10/23 09:26:13;;;;;;;7.20;3.30;;;;;;;13.72;93.93;100968.41;5035109;28;96463;-30
2022/10/23 09:28:47;;;;;;;7.10;2.67;;;;;;;13.74;93.93;100967.31;5033497;27;96687;-31
2022/10/23 09:31:13;;;;;;;11.95;3.17;;;;;;;13.76;94.00;100961.75;5033364;28;101281;-31
2022/10/23 09:33:39;;;;;;;9.88;3.10;;;;;;;13.77;93.79;100956.19;5033593;28;101008;-31
2022/10/23 09:36:12;;;;;;;5.85;3.17;;;;;;;13.84;93.63;100959.34;5033486;28;96851;-31
2022/10/23 09:38:47;;;;;;;8.00;2.28;;;;;;;13.81;94.00;100944.09;5034757;28;96835;-30
2022/10/23 09:41:34;;;;;;;4.20;2.22;;;;;;;13.85;94.25;100939.31;5032698;28;101066;-31
2022/10/23 09:44:20;;;;;;;4.95;2.58;;;;;;;13.86;94.14;100932.00;5033215;28;101222;-30
2022/10/23 09:46:49;;;;;;;6.28;3.10;;;;;;;13.90;93.85;100941.69;5033516;28;96605;-30
2022/10/23 09:49:25;;;;;;;5.05;2.42;;;;;;;13.92;93.83;100942.44;5032316;28;97049;-30
2022/10/23 09:52:08;;;;;;;9.57;3.92;;;;;;;13.95;92.98;100936.78;5033092;28;100718;-31
2022/10/23 09:54:38;;;;;;;8.15;3.55;;;;;;;13.98;93.51;100922.91;5033393;28;100572;-30
2022/10/23 09:57:24;;;;;;;6.63;3.75;;;;;;;14.02;93.37;100941.63;5033101;28;96628;-30
2022/10/23 09:59:52;;;;;;;7.80;4.03;;;;;;;14.02;93.19;100936.19;5029700;28;99837;-30
2022/10/23 10:02:30;;;;;;;4.85;3.03;;;;;;;14.06;93.41;100925.06;5032693;28;100982;-30
2022/10/23 10:04:55;;;;;;;6.10;3.03;;;;;;;14.07;93.31;100922.22;5032838;28;101302;-31
2022/10/23 10:07:29;;;;;;;6.40;3.22;;;;;;;14.14;93.22;100914.47;5034222;28;96482;-30
2022/10/23 10:09:56;;;;;;;11.52;3.95;;;;;;;14.14;92.93;100907.16;5032897;28;96662;-30
2022/10/23 10:12:37;;;;;;;9.15;4.15;;;;;;;14.20;93.30;100903.97;5032735;28;101353;-32
2022/10/23 10:15:11;;;;;;;7.63;3.70;;;;;;;14.21;93.13;100894.81;5034023;28;97914;-31
2022/10/23 10:18:20;;;;;;;7.55;2.90;;;;;;;14.23;93.14;100897.44;5032794;28;96601;-31
2022/10/23 10:20:55;;;;;;;8.05;3.13;;;;;;;14.26;92.98;100889.03;5034586;28;96511;-30
2022/10/23 10:23:35;;;;;;;6.50;3.05;;;;;;;14.31;92.74;100894.13;5034039;28;97547;-31
2022/10/23 10:26:22;;;;;;;5.05;2.95;;;;;;;14.34;92.61;100893.88;5034461;28;98043;-30
2022/10/23 10:29:12;;;;;;;5.03;2.70;;;;;;;14.35;92.92;100891.03;5032622;28;96908;-30
2022/10/23 10:32:02;;;;;;;8.13;2.97;;;;;;;14.36;93.16;100873.69;5033352;28;96863;-32
2022/10/23 10:34:33;;;;;;;7.22;3.13;;;;;;;14.41;92.95;100863.28;5032026;28;98982;-32
2022/10/23 10:37:33;;;;;;;6.32;2.90;;;;;;;14.45;93.03;100843.00;5032446;27;101348;-29
2022/10/23 10:40:09;;;;;;;8.27;3.47;;;;;;;14.50;92.76;100844.50;5032381;28;96741;-30
2022/10/23 10:42:54;;;;;;;5.07;2.78;;;;;;;14.57;92.35;100834.91;5032619;28;96734;-30
2022/10/23 10:45:30;;;;;;;6.13;2.33;;;;;;;14.63;92.39;100821.66;5032230;28;101384;-30
2022/10/23 10:48:14;;;;;;;9.38;2.90;;;;;;;14.71;92.13;100820.19;5033157;28;99142;-31
2022/10/23 10:50:47;;;;;;;6.35;2.75;;;;;;;14.76;91.82;100827.00;5033417;28;96812;-30
2022/10/23 10:53:43;;;;;;;8.68;2.72;;;;;;;14.82;91.75;100818.31;5032572;28;96803;-30
2022/10/23 10:56:13;;;;;;;5.53;2.22;;;;;;;14.84;91.79;100810.00;5034056;28;97488;-30
2022/10/23 10:59:00;;;;;;;6.20;2.22;;;;;;;14.91;91.46;100815.84;5031762;28;102042;-30
2022/10/23 11:02:27;;;;;;;6.72;2.85;;;;;;;15.01;91.28;100816.81;5031739;27;97666;-31
2022/10/23 11:05:19;;;;;;;7.70;2.90;;;;;;;15.07;91.09;100800.84;4970577;28;97070;-30
2022/10/23 11:07:52;;;;;;;;;;;;;;;15.10;91.29;100804.31;5029534;28;101289;-31
2022/10/23 11:10:18;;;;;;;9.20;2.40;;;;;;;15.12;90.82;100786.81;5033630;28;97778;-29
2022/10/23 11:12:46;;;;;;;9.63;3.50;;;;;;;15.19;90.61;100771.69;5031869;28;96532;-30
2022/10/23 11:15:18;;;;;;;8.23;3.17;;;;;;;15.26;90.67;100758.41;5032900;27;96793;-31
2022/10/23 11:17:49;;;;;;;9.65;2.83;;;;;;;15.35;90.56;100759.47;5031785;27;100924;-30
2022/10/23 11:20:42;;;;;;;6.53;2.75;;;;;;;15.40;90.06;100751.81;5032025;28;101267;-31
2022/10/23 11:23:31;;;;;;;5.75;2.72;;;;;;;15.46;89.76;100763.06;5032962;28;96638;-30
2022/10/23 11:26:26;;;;;;;5.25;2.78;;;;;;;15.56;89.89;100746.78;5033368;28;96686;-31
2022/10/23 11:29:02;;;;;;;6.68;2.65;;;;;;;15.61;89.84;100744.53;5032619;28;97299;-31
2022/10/23 11:32:05;;;;;;;7.70;2.72;;;;;;;15.66;89.72;100734.09;5031572;28;100734;-31
2022/10/23 11:34:59;;;;;;;8.85;3.88;;;;;;;15.70;89.31;100730.13;5033072;28;96670;-30
2022/10/23 11:37:25;;;;;;;9.00;3.53;;;;;;;15.76;89.32;100736.09;5033410;27;96532;-30